LYPA weather

Pančevo Airfield
Pančevo, South Banat, Serbia

Public forecast

Using degrees Celsius for public forecast. Weather courtesy of forecast.io.

METAR (pilot weather report)

Closest report is Belgrade Nikola Tesla Airport, 15.0 nm (27.7 km) WSW. Retrieved 2019/06/19 04:30 UTC (0 seconds ago):

LYBE 190430Z 10003KT 5000 BR NSC 20/18 Q1014 BECMG 7000 NSW

TAF (pilot weather forecast)

Forecast is more than 12 hours old.

Closest forecast is Belgrade Nikola Tesla Airport, 15.0 nm (27.7 km) WSW. Retrieved 2019/06/18 00:21 UTC (1 day ago):

TAF LYBE 182300Z 1900/1924 16005KT CAVOK TX30/1914Z TN16/1903Z TEMPO 1902/1905 3000 BR TEMPO 1912/1918 VRB20G30KT 3000 TSGRRA SCT030CB SCT033